Time;durP1;ratioP1;P1;durP2;ratioP2;P2;SDS_P1;SDS_P2;PMS_P1;PMS_P2;Temp;Humidity;BMP_temperature;BMP_pressure;BME280_temperature;BME280_humidity;BME280_pressure;Samples;Min_cycle;Max_cycle;Signal;HPM_P1;HPM_P2
2021/12/02 00:01:42;;;;;;;15.13;10.73;;;;;;;8.16;72.21;100075.88;5011920;28;20487;-60
2021/12/02 00:04:09;;;;;;;14.57;11.00;;;;;;;8.17;72.40;100061.91;5013675;28;20508;-58
2021/12/02 00:06:36;;;;;;;15.32;11.93;;;;;;;8.16;72.17;100066.28;5013478;28;20046;-57
2021/12/02 00:09:03;;;;;;;15.38;11.23;;;;;;;8.14;72.30;100062.91;5013450;28;20072;-57
2021/12/02 00:11:30;;;;;;;15.15;11.55;;;;;;;8.14;72.43;100059.47;5013124;28;20045;-57
2021/12/02 00:13:59;;;;;;;14.75;11.30;;;;;;;8.13;72.59;100056.00;5031305;28;20069;-64
2021/12/02 00:21:51;;;;;;;17.08;11.90;;;;;;;8.13;72.67;100049.94;5028387;28;20943;-58
2021/12/02 00:24:19;;;;;;;17.40;12.10;;;;;;;8.15;72.64;100048.06;5033027;28;20068;-63
2021/12/02 00:26:51;;;;;;;17.85;12.43;;;;;;;8.13;72.79;100042.09;5032924;28;20053;-57
2021/12/02 00:29:20;;;;;;;19.38;12.80;;;;;;;8.13;72.66;100040.31;5031744;28;20083;-57
2021/12/02 00:31:50;;;;;;;19.08;13.55;;;;;;;8.11;72.73;100034.38;5032654;28;20053;-57
2021/12/02 00:34:16;;;;;;;17.80;13.15;;;;;;;8.10;72.88;100031.81;5032719;28;20049;-58
2021/12/02 00:36:43;;;;;;;17.40;12.55;;;;;;;8.09;72.94;100038.81;5032479;28;20049;-57
2021/12/02 00:39:13;;;;;;;18.10;12.48;;;;;;;8.09;72.88;100038.81;5032523;28;20049;-58
2021/12/02 00:41:41;;;;;;;18.55;12.25;;;;;;;8.09;73.00;100038.00;5032394;28;20049;-59
2021/12/02 00:44:09;;;;;;;18.50;14.13;;;;;;;8.09;72.87;100038.00;5032700;28;20049;-58
2021/12/02 00:46:36;;;;;;;16.77;11.93;;;;;;;8.08;72.89;100034.53;5030918;28;20048;-57
2021/12/02 00:49:07;;;;;;;15.23;11.82;;;;;;;8.06;72.91;100036.38;5032498;28;20054;-57
2021/12/02 00:51:35;;;;;;;19.58;12.77;;;;;;;8.06;72.78;100035.53;5032427;28;20095;-58
2021/12/02 00:54:07;;;;;;;15.20;12.35;;;;;;;8.01;73.02;100041.88;5032662;28;20486;-58
2021/12/02 00:56:35;;;;;;;18.58;12.10;;;;;;;8.01;73.00;100041.88;5032423;28;20437;-58
2021/12/02 00:59:02;;;;;;;17.08;12.10;;;;;;;8.02;72.85;100042.72;5032669;28;20077;-63
2021/12/02 01:01:37;;;;;;;18.10;13.35;;;;;;;8.02;72.89;100042.72;5030117;28;20046;-57
2021/12/02 01:04:09;;;;;;;17.98;13.27;;;;;;;8.01;72.87;100039.28;5012785;28;20073;-57
2021/12/02 01:06:35;;;;;;;16.73;12.60;;;;;;;8.03;72.96;100043.56;5012643;28;20050;-57
2021/12/02 01:09:05;;;;;;;18.08;13.90;;;;;;;8.03;72.98;100033.13;5012531;28;20092;-64
2021/12/02 01:11:32;;;;;;;18.40;12.50;;;;;;;8.01;72.96;100028.81;5012571;28;20053;-57
2021/12/02 01:13:59;;;;;;;19.20;13.32;;;;;;;8.00;73.12;100024.50;5012694;28;20449;-58
2021/12/02 01:16:26;;;;;;;16.90;13.40;;;;;;;8.01;73.07;100023.59;5012633;28;20041;-57
2021/12/02 01:18:53;;;;;;;17.88;14.00;;;;;;;8.03;73.18;100020.06;5012202;28;20054;-58
2021/12/02 01:21:23;;;;;;;16.65;13.10;;;;;;;8.03;73.15;100014.84;5012398;28;20054;-57
2021/12/02 01:23:54;;;;;;;18.98;12.85;;;;;;;8.04;73.24;100019.09;5012356;28;20054;-58
2021/12/02 01:26:21;;;;;;;17.45;12.82;;;;;;;8.05;73.40;100018.19;5012511;28;20050;-57
2021/12/02 01:28:49;;;;;;;18.10;12.88;;;;;;;8.05;73.28;100018.19;5012293;28;20107;-59
2021/12/02 01:31:16;;;;;;;17.10;12.63;;;;;;;8.06;73.36;100012.84;5012552;28;20054;-57
2021/12/02 01:33:45;;;;;;;16.98;12.77;;;;;;;8.07;73.34;100003.25;5011994;28;20053;-57
2021/12/02 01:36:13;;;;;;;17.80;13.27;;;;;;;8.06;73.39;100009.41;5012350;28;20116;-58
2021/12/02 01:38:40;;;;;;;19.60;13.48;;;;;;;8.04;73.58;100006.91;5012219;28;20465;-58
2021/12/02 01:41:07;;;;;;;19.17;13.13;;;;;;;8.05;73.56;99998.13;5015559;28;20076;-64
2021/12/02 01:43:49;;;;;;;17.02;13.38;;;;;;;8.06;73.30;99993.75;5016035;28;20495;-58
2021/12/02 01:46:25;;;;;;;17.77;13.40;;;;;;;8.05;73.64;100003.34;5016123;28;20046;-57
2021/12/02 01:49:04;;;;;;;16.67;13.02;;;;;;;8.05;73.47;100002.50;5015727;28;20080;-64
2021/12/02 01:51:38;;;;;;;18.52;14.25;;;;;;;8.06;73.72;99998.97;5015916;28;20049;-57
2021/12/02 01:54:25;;;;;;;18.95;13.75;;;;;;;8.06;73.72;99991.13;5016085;28;20103;-60
2021/12/02 01:57:04;;;;;;;18.40;14.18;;;;;;;8.06;73.70;99988.50;5016041;28;20057;-57
2021/12/02 01:59:34;;;;;;;21.50;15.10;;;;;;;8.07;73.84;99991.03;5015928;28;20513;-57
2021/12/02 02:02:07;;;;;;;20.60;14.60;;;;;;;8.07;73.94;99984.97;5015979;28;20076;-58
2021/12/02 02:04:34;;;;;;;20.02;14.55;;;;;;;8.06;73.73;99975.44;5015742;28;20057;-58
2021/12/02 02:07:03;;;;;;;19.80;15.25;;;;;;;8.05;73.87;99979.84;5019757;28;20192;-58
2021/12/02 02:09:33;;;;;;;17.83;13.43;;;;;;;8.03;73.77;99978.25;5015674;28;20433;-57
2021/12/02 02:12:09;;;;;;;19.52;14.75;;;;;;;8.03;73.91;99970.41;5015561;28;20092;-57
2021/12/02 02:14:36;;;;;;;;;;;;;;;8.03;73.97;99973.03;5016083;28;20541;-58
2021/12/02 02:17:22;;;;;;;21.88;14.05;;;;;;;8.06;73.96;99965.00;5015651;28;19928;-57
2021/12/02 02:19:49;;;;;;;24.15;15.20;;;;;;;8.06;73.56;99967.59;5015018;28;20053;-58
2021/12/02 02:22:21;;;;;;;20.67;14.68;;;;;;;8.00;73.90;99964.44;5015371;28;20553;-58
2021/12/02 02:24:47;;;;;;;18.92;14.23;;;;;;;8.03;73.98;99958.19;5014945;28;20097;-58
2021/12/02 02:27:14;;;;;;;24.15;15.05;;;;;;;8.03;73.88;99950.34;5015311;28;20080;-58
2021/12/02 02:29:41;;;;;;;21.33;15.48;;;;;;;8.01;74.04;99945.22;5015293;28;20406;-57
2021/12/02 02:32:08;;;;;;;20.52;14.77;;;;;;;8.04;74.06;99948.56;5015369;28;20100;-58
2021/12/02 02:34:35;;;;;;;19.67;14.63;;;;;;;8.05;74.23;99942.41;5015171;28;20050;-57
2021/12/02 02:37:05;;;;;;;19.92;14.68;;;;;;;8.04;74.18;99943.31;5015267;28;20092;-57
2021/12/02 02:39:34;;;;;;;19.02;14.75;;;;;;;8.01;74.32;99945.22;5014697;28;20111;-57
2021/12/02 02:42:03;;;;;;;19.15;14.38;;;;;;;8.04;74.28;99938.09;5015130;28;20116;-58
2021/12/02 02:44:32;;;;;;;20.88;14.70;;;;;;;8.04;74.33;99932.88;5014985;28;20042;-58
2021/12/02 02:46:59;;;;;;;21.60;15.18;;;;;;;8.03;74.22;99932.06;5015041;28;20050;-58
2021/12/02 02:49:26;;;;;;;20.35;15.18;;;;;;;8.03;74.40;99932.06;5014931;28;20049;-57
2021/12/02 02:51:53;;;;;;;18.15;13.85;;;;;;;8.04;74.33;99931.13;5015064;28;20057;-57
2021/12/02 02:54:22;;;;;;;20.92;14.20;;;;;;;8.02;74.34;99927.75;5015072;28;20460;-57
2021/12/02 02:56:56;;;;;;;18.92;15.20;;;;;;;8.00;74.40;99922.63;5014405;28;20046;-57
2021/12/02 03:02:26;;;;;;;18.10;13.45;;;;;;;7.98;74.41;99924.47;5014723;28;20046;-56
2021/12/02 03:12:39;;;;;;;20.23;15.05;;;;;;;7.92;74.44;99914.41;5014110;28;20494;-57
2021/12/02 03:17:34;;;;;;;21.05;13.75;;;;;;;7.88;74.85;99907.66;5014488;28;20552;-57
2021/12/02 03:20:02;;;;;;;20.05;15.10;;;;;;;7.92;74.68;99905.72;5014441;28;20058;-57
2021/12/02 03:22:28;;;;;;;18.67;14.50;;;;;;;7.92;74.82;99908.31;5014232;28;20042;-57
2021/12/02 03:24:55;;;;;;;19.40;13.95;;;;;;;7.91;74.92;99897.06;5014390;28;20045;-58
2021/12/02 03:27:22;;;;;;;21.33;14.38;;;;;;;7.91;74.81;99897.06;5014298;28;20050;-58
2021/12/02 03:29:48;;;;;;;19.30;13.95;;;;;;;7.90;74.78;99892.75;5013697;28;20060;-57
2021/12/02 03:32:15;;;;;;;17.38;13.70;;;;;;;7.92;74.74;99896.13;5014167;28;20454;-57
2021/12/02 03:34:42;;;;;;;19.52;14.38;;;;;;;7.92;74.87;99895.28;5014110;28;20050;-57
2021/12/02 03:37:09;;;;;;;21.75;14.90;;;;;;;7.91;75.11;99891.81;5014347;28;20049;-57
2021/12/02 03:39:37;;;;;;;18.58;14.10;;;;;;;7.90;75.10;99890.13;5013886;28;20514;-57
2021/12/02 03:42:05;;;;;;;20.00;14.25;;;;;;;7.87;74.97;99902.53;5013865;28;20046;-57
2021/12/02 03:44:32;;;;;;;20.08;14.55;;;;;;;7.85;74.96;99895.63;5025395;28;20406;-58
2021/12/02 03:46:58;;;;;;;20.55;14.25;;;;;;;7.81;75.21;99896.75;5033684;28;20080;-57
2021/12/02 03:49:25;;;;;;;20.13;14.25;;;;;;;7.84;75.01;99893.94;5033540;28;20051;-57
2021/12/02 03:51:52;;;;;;;20.10;14.90;;;;;;;7.84;74.90;99890.50;5033589;28;20050;-58
2021/12/02 03:54:18;;;;;;;18.52;14.60;;;;;;;7.80;75.17;99884.63;5033594;28;20490;-57
2021/12/02 03:56:45;;;;;;;20.95;14.23;;;;;;;7.83;75.17;99878.38;5033421;28;20091;-57
2021/12/02 03:59:12;;;;;;;20.90;15.60;;;;;;;7.79;75.26;99876.88;5033299;28;20077;-57
2021/12/02 04:01:39;;;;;;;20.42;14.32;;;;;;;7.84;75.05;99877.44;5024142;28;20042;-57
2021/12/02 04:04:06;;;;;;;20.75;15.18;;;;;;;7.78;75.29;99880.41;5024378;28;20505;-57
2021/12/02 04:06:33;;;;;;;19.77;14.63;;;;;;;7.80;75.27;99881.16;5029902;28;20060;-57
2021/12/02 04:09:12;;;;;;;19.13;14.35;;;;;;;7.81;75.34;99875.84;5029882;28;20111;-57
2021/12/02 04:11:48;;;;;;;18.63;14.93;;;;;;;7.84;75.36;99873.03;5029894;28;20045;-57
2021/12/02 04:14:28;;;;;;;19.88;14.40;;;;;;;7.85;75.28;99873.91;5030002;28;20049;-57
2021/12/02 04:17:01;;;;;;;19.73;15.05;;;;;;;7.88;74.99;99865.03;5029765;28;20096;-57
2021/12/02 04:19:28;;;;;;;20.70;15.65;;;;;;;7.86;75.19;99859.91;5015457;28;20085;-57
2021/12/02 04:21:57;;;;;;;21.67;14.90;;;;;;;7.88;75.27;99872.88;5009806;28;20616;-57
2021/12/02 04:24:24;;;;;;;19.75;15.07;;;;;;;7.89;75.38;99864.13;5009555;28;20042;-57
2021/12/02 04:26:52;;;;;;;18.77;14.35;;;;;;;7.90;75.17;99857.94;5009778;28;20050;-57
2021/12/02 04:29:19;;;;;;;19.50;15.13;;;;;;;7.90;75.13;99864.03;5009828;28;20434;-58
2021/12/02 04:31:47;;;;;;;21.33;15.77;;;;;;;7.91;75.30;99865.69;5009654;28;20045;-57
2021/12/02 04:34:15;;;;;;;18.45;14.40;;;;;;;7.91;75.25;99864.84;5009512;28;20057;-57
2021/12/02 04:36:42;;;;;;;19.30;14.00;;;;;;;7.92;75.19;99856.09;5009555;28;20046;-58
2021/12/02 04:39:09;;;;;;;20.27;15.57;;;;;;;7.93;75.21;99857.78;5010003;28;20046;-57
2021/12/02 04:41:36;;;;;;;18.85;15.20;;;;;;;7.92;75.17;99853.47;5009692;28;20054;-57
2021/12/02 04:44:03;;;;;;;20.83;15.50;;;;;;;7.91;75.15;99850.03;5009609;28;20045;-58
2021/12/02 04:46:30;;;;;;;21.83;15.30;;;;;;;7.91;75.33;99857.88;5009372;28;20046;-57
2021/12/02 04:48:56;;;;;;;21.73;15.45;;;;;;;7.93;75.36;99848.16;5009539;28;20557;-58
2021/12/02 04:51:23;;;;;;;20.92;15.95;;;;;;;7.92;75.17;99845.63;5009031;28;20498;-57
2021/12/02 04:53:50;;;;;;;18.92;14.73;;;;;;;7.88;75.42;99846.75;5009730;28;20545;-57
2021/12/02 04:56:17;;;;;;;20.30;15.00;;;;;;;7.85;75.39;99850.41;5009572;28;20050;-57
2021/12/02 04:58:44;;;;;;;21.08;15.25;;;;;;;7.87;75.34;99858.97;5009354;28;20050;-57
2021/12/02 05:01:10;;;;;;;18.10;14.52;;;;;;;7.84;75.57;99853.94;5009454;28;20473;-62
2021/12/02 05:03:37;;;;;;;18.15;14.75;;;;;;;7.84;75.54;99859.16;5009125;28;20072;-57
2021/12/02 05:06:03;;;;;;;22.15;14.52;;;;;;;7.84;75.60;99857.38;5009001;28;20046;-57
2021/12/02 05:08:30;;;;;;;19.65;15.18;;;;;;;7.82;75.66;99856.66;5009276;28;20494;-58
2021/12/02 05:10:57;;;;;;;18.48;14.60;;;;;;;7.86;75.61;99857.31;5009318;28;20049;-57
2021/12/02 05:13:23;;;;;;;18.95;14.95;;;;;;;7.83;75.67;99865.31;5017581;28;20046;-57
2021/12/02 05:15:50;;;;;;;20.58;15.27;;;;;;;7.85;75.55;99864.28;5031988;28;20052;-57
2021/12/02 05:18:17;;;;;;;19.38;14.90;;;;;;;7.85;75.62;99861.66;5031811;28;20413;-57
2021/12/02 05:20:44;;;;;;;20.67;15.15;;;;;;;7.85;75.66;99856.44;5017164;28;20061;-57
2021/12/02 05:23:10;;;;;;;22.55;14.20;;;;;;;7.89;75.56;99864.13;5013100;28;20050;-57
2021/12/02 05:25:37;;;;;;;17.60;14.52;;;;;;;7.88;75.52;99865.03;5013118;28;20053;-59
2021/12/02 05:28:04;;;;;;;19.85;15.15;;;;;;;7.89;75.68;99866.72;5015796;28;20053;-57
2021/12/02 05:30:30;;;;;;;18.67;14.32;;;;;;;7.87;75.65;99858.13;5032738;28;20049;-57
2021/12/02 05:32:57;;;;;;;18.85;14.13;;;;;;;7.85;75.69;99859.06;5032866;28;20049;-58
2021/12/02 05:35:23;;;;;;;17.85;13.23;;;;;;;7.82;75.72;99858.41;5032940;28;20045;-58
2021/12/02 05:37:50;;;;;;;14.73;12.40;;;;;;;7.78;75.85;99867.34;5032757;28;20429;-58
2021/12/02 05:40:17;;;;;;;16.85;12.32;;;;;;;7.83;75.95;99867.91;5027788;28;20049;-57
2021/12/02 05:42:43;;;;;;;17.88;12.43;;;;;;;7.85;75.75;99859.06;5032659;28;20935;-61
2021/12/02 05:45:10;;;;;;;16.30;13.18;;;;;;;7.84;75.87;99846.94;5032575;28;20046;-57
2021/12/02 05:47:36;;;;;;;16.60;11.40;;;;;;;7.85;75.73;99847.78;5031203;28;21745;-57
2021/12/02 05:50:04;;;;;;;17.42;12.50;;;;;;;7.88;75.68;99844.97;5015747;28;20050;-61
2021/12/02 05:52:31;;;;;;;20.80;13.25;;;;;;;7.89;75.80;99846.66;5026032;28;20050;-57
2021/12/02 05:54:58;;;;;;;17.00;12.40;;;;;;;7.87;75.80;99838.06;5023191;28;20579;-59
2021/12/02 05:57:25;;;;;;;17.63;12.63;;;;;;;7.90;75.67;99835.28;5030287;28;20099;-58
2021/12/02 05:59:52;;;;;;;16.33;12.48;;;;;;;7.91;75.91;99838.72;5032411;28;20103;-59
2021/12/02 06:02:19;;;;;;;15.23;12.73;;;;;;;7.90;75.56;99832.66;5032230;28;20099;-59
2021/12/02 06:04:52;;;;;;;18.25;12.70;;;;;;;7.92;75.89;99822.97;5032140;28;20080;-58
2021/12/02 06:07:30;;;;;;;18.58;13.07;;;;;;;7.92;75.78;99822.97;5032173;28;20068;-59
2021/12/02 06:10:02;;;;;;;17.33;12.63;;;;;;;7.93;75.84;99823.81;5032343;28;20453;-59
2021/12/02 06:12:29;;;;;;;17.23;12.45;;;;;;;7.92;75.61;99828.22;5032098;28;20095;-60
2021/12/02 06:14:55;;;;;;;15.25;11.65;;;;;;;7.92;75.59;99820.38;5018289;28;20403;-59
2021/12/02 06:17:22;;;;;;;17.77;12.40;;;;;;;7.91;75.72;99815.22;5015111;28;20115;-59
2021/12/02 06:19:48;;;;;;;18.15;12.38;;;;;;;7.91;75.72;99812.59;5031751;28;20449;-58
2021/12/02 06:22:15;;;;;;;16.27;12.38;;;;;;;7.91;75.65;99812.59;5032171;28;20053;-59
2021/12/02 06:24:54;;;;;;;18.35;12.90;;;;;;;7.91;75.61;99817.81;5032145;28;20115;-59
2021/12/02 06:27:21;;;;;;;17.10;12.88;;;;;;;7.90;75.56;99816.13;5031114;28;20045;-60
2021/12/02 06:29:48;;;;;;;16.13;12.88;;;;;;;7.89;75.63;99817.94;5023335;28;20050;-60
2021/12/02 06:32:14;;;;;;;19.25;14.13;;;;;;;7.89;75.63;99822.31;5011873;28;20042;-60
2021/12/02 06:34:41;;;;;;;21.17;14.25;;;;;;;7.87;75.50;99819.78;5012572;28;20050;-59
2021/12/02 06:37:07;;;;;;;20.55;13.75;;;;;;;7.87;75.43;99817.16;5026832;28;20088;-59
2021/12/02 06:39:34;;;;;;;22.25;14.00;;;;;;;7.82;75.71;99814.84;5030078;28;20088;-66
2021/12/02 06:42:00;;;;;;;18.75;13.02;;;;;;;7.85;75.54;99821.66;5028426;28;20567;-60
2021/12/02 06:44:28;;;;;;;17.75;12.70;;;;;;;7.85;75.45;99821.66;5031128;28;20103;-60
2021/12/02 06:46:56;;;;;;;18.15;13.77;;;;;;;7.85;75.36;99816.44;5024542;28;20045;-63
2021/12/02 06:49:22;;;;;;;22.25;14.07;;;;;;;7.83;75.31;99819.16;5011645;28;20049;-58
2021/12/02 06:51:49;;;;;;;18.92;12.68;;;;;;;7.81;75.59;99812.34;5011567;28;20080;-60
2021/12/02 06:54:16;;;;;;;21.17;13.93;;;;;;;7.81;75.95;99807.13;5011013;28;20045;-61
2021/12/02 06:56:50;;;;;;;21.42;14.32;;;;;;;7.83;75.66;99805.22;5010965;28;20134;-61
2021/12/02 06:59:17;;;;;;;21.08;13.60;;;;;;;7.84;75.53;99799.91;5011459;28;20129;-61
2021/12/02 07:01:45;;;;;;;24.23;14.38;;;;;;;7.85;75.53;99800.78;5011179;28;20056;-61
2021/12/02 07:04:12;;;;;;;21.45;14.15;;;;;;;7.85;75.37;99798.97;5011063;28;20503;-62
2021/12/02 07:06:40;;;;;;;24.95;14.82;;;;;;;7.85;75.54;99804.22;5011274;28;20062;-60
2021/12/02 07:09:07;;;;;;;20.65;13.68;;;;;;;7.87;75.26;99793.66;5010576;28;20042;-60
2021/12/02 07:11:33;;;;;;;24.17;14.98;;;;;;;7.86;75.47;99797.22;5011067;28;20057;-60
2021/12/02 07:14:03;;;;;;;21.52;14.30;;;;;;;7.87;75.59;99795.44;5024659;28;20050;-62
2021/12/02 07:16:32;;;;;;;24.30;15.38;;;;;;;7.86;75.39;99794.63;5030260;28;20056;-60
2021/12/02 07:19:03;;;;;;;21.48;14.80;;;;;;;7.85;75.34;99798.16;5030392;28;20813;-60
2021/12/02 07:21:30;;;;;;;25.08;15.27;;;;;;;7.84;75.43;99799.91;5029357;28;20061;-60
2021/12/02 07:23:57;;;;;;;25.63;15.02;;;;;;;7.87;75.06;99804.09;5018589;28;20038;-59
2021/12/02 07:26:26;;;;;;;19.88;15.27;;;;;;;7.84;75.43;99802.53;5027335;28;20440;-65
2021/12/02 07:28:55;;;;;;;22.42;15.25;;;;;;;7.80;75.56;99811.47;5030426;28;20049;-62
2021/12/02 07:31:23;;;;;;;23.92;15.00;;;;;;;7.79;75.46;99816.81;5030177;28;20057;-65
2021/12/02 07:33:57;;;;;;;24.08;16.98;;;;;;;7.78;75.49;99812.50;5030397;28;20445;-65
2021/12/02 07:36:24;;;;;;;26.15;17.35;;;;;;;7.74;75.56;99814.47;5018317;28;20051;-63
2021/12/02 07:38:51;;;;;;;21.52;15.52;;;;;;;7.72;75.54;99818.94;5009246;28;20085;-64
2021/12/02 07:41:18;;;;;;;19.48;14.13;;;;;;;7.68;75.64;99815.69;5010286;28;20121;-65
2021/12/02 07:43:45;;;;;;;22.00;14.55;;;;;;;7.67;75.59;99808.78;5010651;28;20525;-66
2021/12/02 07:46:12;;;;;;;19.60;13.82;;;;;;;7.71;75.78;99808.56;5010581;28;20050;-65
2021/12/02 07:48:39;;;;;;;23.42;14.52;;;;;;;7.71;75.64;99816.41;5009962;28;20042;-65
2021/12/02 07:51:18;;;;;;;21.98;15.27;;;;;;;7.73;75.66;99815.38;5010067;28;20050;-63
2021/12/02 07:53:48;;;;;;;19.00;14.05;;;;;;;7.81;75.61;99814.94;5016654;28;20445;-64
2021/12/02 07:56:16;;;;;;;22.50;14.30;;;;;;;7.81;75.52;99818.38;5029646;28;20448;-61
2021/12/02 07:58:45;;;;;;;21.52;15.23;;;;;;;7.77;75.59;99808.22;5026920;28;20049;-64
2021/12/02 08:01:14;;;;;;;21.55;14.55;;;;;;;7.75;75.89;99821.38;5029286;28;20482;-65
2021/12/02 08:03:44;;;;;;;20.80;14.32;;;;;;;7.80;75.60;99821.09;5028809;28;20063;-66
2021/12/02 08:06:14;;;;;;;19.30;14.18;;;;;;;7.80;75.57;99823.72;5028964;28;20514;-60
2021/12/02 08:08:45;;;;;;;25.23;15.55;;;;;;;7.75;75.81;99823.16;5028454;28;20045;-64
2021/12/02 08:11:12;;;;;;;19.25;13.73;;;;;;;7.77;75.68;99823.88;5027806;28;20053;-61
2021/12/02 08:13:39;;;;;;;27.23;15.05;;;;;;;7.74;75.99;99819.69;5028983;28;20045;-61
2021/12/02 08:16:07;;;;;;;22.67;15.20;;;;;;;7.79;75.82;99817.63;5028851;28;20091;-64
2021/12/02 08:18:35;;;;;;;24.85;15.60;;;;;;;7.84;75.70;99806.91;5028831;28;20574;-62
2021/12/02 08:21:02;;;;;;;22.42;14.52;;;;;;;7.85;75.65;99811.22;5028829;28;20877;-61
2021/12/02 08:23:28;;;;;;;23.90;15.18;;;;;;;7.84;75.45;99812.13;5021092;28;20099;-62
2021/12/02 08:25:56;;;;;;;23.10;14.88;;;;;;;7.85;75.58;99800.78;5025515;28;20045;-65
2021/12/02 08:28:23;;;;;;;24.40;16.40;;;;;;;7.90;75.71;99808.31;5028480;28;20053;-65
2021/12/02 08:30:50;;;;;;;46.85;25.65;;;;;;;7.87;75.74;99805.88;5028314;28;20045;-59
2021/12/02 08:33:18;;;;;;;57.00;29.58;;;;;;;7.82;76.01;99807.03;5028687;28;20049;-64
2021/12/02 08:35:46;;;;;;;54.40;28.33;;;;;;;7.85;75.84;99806.00;5028553;28;20111;-65
2021/12/02 08:38:15;;;;;;;44.33;25.40;;;;;;;7.89;75.79;99812.69;5028612;28;20475;-61
2021/12/02 08:40:44;;;;;;;43.78;23.35;;;;;;;7.93;75.83;99805.53;5024911;28;20055;-64
2021/12/02 08:43:13;;;;;;;32.40;19.35;;;;;;;7.91;75.88;99810.84;5020853;28;20504;-64
2021/12/02 08:45:42;;;;;;;27.33;18.48;;;;;;;7.92;75.86;99817.75;5022931;28;20494;-64
2021/12/02 08:48:10;;;;;;;23.80;15.95;;;;;;;7.92;75.85;99809.06;5027313;28;20497;-62
2021/12/02 08:50:40;;;;;;;23.52;16.42;;;;;;;7.95;75.89;99811.50;5028003;28;20053;-65
2021/12/02 08:53:13;;;;;;;24.30;15.63;;;;;;;7.96;75.96;99805.31;5027481;28;20041;-61
2021/12/02 08:55:49;;;;;;;22.77;16.63;;;;;;;7.96;75.91;99806.19;5028549;28;20417;-65
2021/12/02 08:58:18;;;;;;;22.88;15.98;;;;;;;7.95;75.83;99804.50;5024120;28;20121;-60
2021/12/02 09:00:46;;;;;;;22.25;16.45;;;;;;;8.04;75.65;99815.31;5026506;28;20045;-60
2021/12/02 09:03:15;;;;;;;25.77;16.35;;;;;;;8.04;75.64;99817.91;5024202;28;20099;-59
2021/12/02 09:05:43;;;;;;;26.33;16.73;;;;;;;8.04;75.68;99810.94;5025969;28;20589;-59
2021/12/02 09:08:11;;;;;;;22.35;15.80;;;;;;;8.04;75.72;99817.91;5025364;28;20037;-60
2021/12/02 09:10:38;;;;;;;22.95;16.98;;;;;;;8.11;75.69;99816.63;5028282;28;20050;-59
2021/12/02 09:13:08;;;;;;;24.25;17.27;;;;;;;8.15;75.35;99816.34;5028343;28;20049;-59
2021/12/02 09:15:37;;;;;;;23.60;16.95;;;;;;;8.13;75.68;99822.59;5020561;28;20418;-59
2021/12/02 09:18:04;;;;;;;24.05;16.17;;;;;;;8.20;75.42;99813.44;5023635;28;20045;-60
2021/12/02 09:20:31;;;;;;;22.33;16.00;;;;;;;8.27;75.16;99811.28;5027789;28;20057;-60
2021/12/02 09:22:58;;;;;;;21.98;17.00;;;;;;;8.17;75.47;99809.22;5022298;28;20048;-59
2021/12/02 09:25:25;;;;;;;25.58;16.42;;;;;;;8.30;75.49;99811.94;5026593;28;20049;-59
2021/12/02 09:27:51;;;;;;;24.17;17.15;;;;;;;8.32;75.23;99806.63;5028154;28;20037;-62
2021/12/02 09:30:18;;;;;;;20.88;15.82;;;;;;;8.31;75.39;99811.00;5027576;28;20075;-59
2021/12/02 09:32:45;;;;;;;22.35;15.73;;;;;;;8.30;75.46;99803.25;5022767;28;20493;-65
2021/12/02 09:35:13;;;;;;;22.30;15.80;;;;;;;8.33;75.43;99803.91;5026516;28;20619;-63
2021/12/02 09:37:40;;;;;;;25.27;17.20;;;;;;;8.37;75.27;99803.69;5024074;28;20406;-60
2021/12/02 09:40:09;;;;;;;25.35;16.83;;;;;;;8.32;75.79;99804.84;5024435;28;20041;-60
2021/12/02 09:42:37;;;;;;;23.10;17.23;;;;;;;8.31;75.79;99797.91;5023112;28;20453;-61
2021/12/02 09:45:04;;;;;;;24.98;16.60;;;;;;;8.26;75.52;99797.38;5024527;28;20046;-60
2021/12/02 09:47:34;;;;;;;24.33;17.25;;;;;;;8.31;75.94;99803.16;5023440;28;20052;-60
2021/12/02 09:50:08;;;;;;;27.52;19.20;;;;;;;8.33;75.68;99800.47;5023717;28;20115;-60
2021/12/02 09:52:38;;;;;;;28.05;18.42;;;;;;;8.32;75.66;99801.41;5025456;28;20418;-60
2021/12/02 09:57:57;;;;;;;25.67;17.50;;;;;;;8.34;76.03;99792.53;5015343;28;20506;-60
2021/12/02 10:00:37;;;;;;;25.20;17.83;;;;;;;8.46;75.74;99784.88;5027572;28;20053;-59
2021/12/02 10:03:16;;;;;;;30.35;19.10;;;;;;;8.50;75.75;99781.13;5028231;28;20100;-61
2021/12/02 10:05:53;;;;;;;25.80;17.77;;;;;;;8.52;75.59;99774.03;5031431;28;20418;-63
2021/12/02 10:08:28;;;;;;;32.10;21.45;;;;;;;8.49;75.77;99776.81;5028831;28;20037;-63
2021/12/02 10:10:58;;;;;;;175.75;88.63;;;;;;;8.37;76.04;99765.34;5030712;28;20045;-61
2021/12/02 10:13:30;;;;;;;101.32;62.35;;;;;;;8.38;76.25;99763.56;5031069;28;20042;-62
2021/12/02 10:16:32;;;;;;;79.20;48.80;;;;;;;8.40;76.36;99764.31;5031349;28;20049;-61
2021/12/02 10:19:09;;;;;;;108.53;67.38;;;;;;;8.41;76.11;99748.53;5028172;28;20099;-63
2021/12/02 10:21:41;;;;;;;45.22;31.58;;;;;;;8.42;76.02;99739.75;5028674;28;20493;-62
2021/12/02 10:24:14;;;;;;;36.00;25.48;;;;;;;8.46;75.90;99736.03;5028662;28;20096;-62
2021/12/02 10:26:51;;;;;;;49.00;35.88;;;;;;;8.49;75.92;99738.47;5028448;28;20042;-61
2021/12/02 10:29:39;;;;;;;34.67;22.25;;;;;;;8.59;75.78;99730.00;5031047;28;20049;-61
2021/12/02 10:32:28;;;;;;;30.20;21.48;;;;;;;8.64;75.45;99727.94;5030755;28;20103;-62
2021/12/02 10:35:06;;;;;;;43.75;32.88;;;;;;;8.68;75.46;99720.72;5029579;28;20099;-63
2021/12/02 10:37:39;;;;;;;28.60;19.50;;;;;;;8.72;75.21;99707.34;5028560;28;20049;-65
2021/12/02 10:40:06;;;;;;;53.80;27.45;;;;;;;8.80;74.87;99699.00;5028704;28;20449;-67
2021/12/02 10:42:34;;;;;;;54.38;29.67;;;;;;;8.83;74.86;99694.38;5030476;28;20049;-69
2021/12/02 10:45:03;;;;;;;314.67;175.43;;;;;;;8.88;74.78;99688.84;5027986;28;20080;-67
2021/12/02 10:47:30;;;;;;;168.10;94.53;;;;;;;8.98;74.63;99678.63;5030798;28;20053;-64
2021/12/02 10:50:00;;;;;;;142.38;81.47;;;;;;;8.93;74.70;99680.72;5029472;28;20103;-60
2021/12/02 10:52:32;;;;;;;56.90;37.50;;;;;;;8.87;75.01;99687.19;5027410;28;20073;-60
2021/12/02 10:55:04;;;;;;;48.60;31.95;;;;;;;8.95;74.91;99674.44;5028286;28;20045;-66
2021/12/02 10:57:34;;;;;;;64.35;43.90;;;;;;;8.92;75.04;99669.41;5030288;28;20041;-67
2021/12/02 11:11:21;;;;;;;41.13;27.80;;;;;;;8.94;75.42;99662.28;5086873;27;1308997;-61
2021/12/02 11:13:53;;;;;;;38.15;24.95;;;;;;;9.01;75.41;99664.50;5114011;28;20035;-59
2021/12/02 11:16:35;;;;;;;33.47;23.92;;;;;;;8.99;74.99;99664.59;5124344;28;20050;-60
2021/12/02 11:19:22;;;;;;;39.28;26.92;;;;;;;8.94;75.27;99658.84;5119250;27;20409;-69
2021/12/02 11:21:48;;;;;;;61.65;40.42;;;;;;;8.90;75.10;99652.97;5126133;27;20043;-65
2021/12/02 11:24:32;;;;;;;64.57;42.08;;;;;;;8.92;75.27;99642.41;5111502;28;20044;-61
2021/12/02 11:27:28;;;;;;;47.30;31.60;;;;;;;8.97;74.88;99643.75;5117342;28;20039;-59
2021/12/02 11:30:00;;;;;;;22.55;12.57;;;;;;;9.92;72.98;99648.56;5109319;28;20044;-58
2021/12/02 11:32:42;;;;;;;44.03;29.48;;;;;;;9.80;72.82;99637.19;5114695;28;20521;-63
2021/12/02 11:35:16;;;;;;;78.65;47.85;;;;;;;9.57;73.56;99630.09;5122677;27;20039;-59
2021/12/02 11:37:53;;;;;;;51.28;33.90;;;;;;;9.39;74.04;99625.22;5115752;28;20213;-63
2021/12/02 11:40:26;;;;;;;51.88;34.72;;;;;;;9.35;74.17;99620.31;5120838;28;20039;-67
2021/12/02 11:42:55;;;;;;;43.80;27.58;;;;;;;9.30;74.42;99621.44;5124753;28;20044;-65
2021/12/02 11:45:24;;;;;;;72.85;42.00;;;;;;;9.21;74.35;99616.84;5112583;28;20055;-61
2021/12/02 11:47:52;;;;;;;28.45;15.75;;;;;;;9.62;74.21;99613.13;5115702;27;20039;-59
2021/12/02 11:50:22;;;;;;;23.75;14.95;;;;;;;10.52;72.35;99609.28;5118628;28;20529;-59
2021/12/02 11:52:49;;;;;;;38.40;20.33;;;;;;;11.03;72.10;99607.25;5110921;27;20036;-63
2021/12/02 11:55:41;;;;;;;55.70;32.92;;;;;;;10.87;71.82;99602.31;5113511;27;20090;-62
2021/12/02 11:58:08;;;;;;;133.38;77.07;;;;;;;10.31;73.10;99606.47;5108768;28;20402;-72
2021/12/02 12:00:36;;;;;;;74.13;46.00;;;;;;;10.05;73.59;99600.50;5115420;27;20097;-64
2021/12/02 12:03:31;;;;;;;126.63;74.78;;;;;;;9.80;73.97;99608.34;5119198;28;20100;-66
2021/12/02 12:06:09;;;;;;;78.22;47.10;;;;;;;9.68;74.32;99598.75;5065648;28;20051;-62
2021/12/02 12:08:37;;;;;;;39.65;27.40;;;;;;;9.62;74.29;99605.28;5105341;28;20047;-71